createdAt,value
2022-08-10T00:04:07.174Z,58.58
2022-08-10T00:09:08.914Z,59.55
2022-08-10T00:14:10.930Z,59.62
2022-08-10T00:19:13.075Z,59.75
2022-08-10T00:24:18.521Z,59.90
2022-08-10T00:29:20.307Z,59.83
2022-08-10T00:34:22.065Z,59.93
2022-08-10T00:39:24.453Z,60.19
2022-08-10T00:44:26.957Z,60.13
2022-08-10T00:49:28.942Z,60.08
2022-08-10T00:54:31.058Z,60.62
2022-08-10T00:59:33.801Z,60.74
2022-08-10T01:04:59.276Z,60.48
2022-08-10T01:10:23.872Z,60.58
2022-08-10T01:15:34.471Z,61.08
2022-08-10T01:20:39.208Z,61.35
2022-08-10T01:26:12.329Z,61.24
2022-08-10T01:31:14.506Z,61.50
2022-08-10T01:36:32.606Z,61.38
2022-08-10T01:41:46.561Z,61.66
2022-08-10T01:46:53.185Z,61.89
2022-08-10T01:52:01.556Z,62.30
2022-08-10T01:57:04.393Z,62.24
2022-08-10T02:02:08.114Z,62.47
2022-08-10T02:07:14.660Z,62.50
2022-08-10T02:12:21.689Z,62.70
2022-08-10T02:18:00.637Z,62.56
2022-08-10T02:23:00.283Z,62.80
2022-08-10T02:28:04.934Z,62.75
2022-08-10T02:33:07.457Z,62.80
2022-08-10T02:38:10.398Z,62.70
2022-08-10T02:45:27.006Z,62.74
2022-08-10T02:49:05.208Z,62.83
2022-08-10T02:54:11.795Z,63.17
2022-08-10T02:59:27.934Z,63.49
2022-08-10T03:04:56.966Z,63.67
2022-08-10T03:10:02.700Z,64.06
2022-08-10T03:15:09.051Z,63.95
2022-08-10T03:20:38.058Z,64.03
2022-08-10T03:25:52.583Z,63.81
2022-08-10T03:30:58.150Z,64.05
2022-08-10T03:36:40.580Z,64.58
2022-08-10T03:41:36.555Z,64.88
2022-08-10T03:46:41.876Z,64.76
2022-08-10T03:51:45.344Z,64.73
2022-08-10T03:56:47.852Z,64.65
2022-08-10T04:02:44.803Z,64.62
2022-08-10T04:07:14.313Z,64.63
2022-08-10T04:12:16.110Z,64.86
2022-08-10T04:17:18.387Z,65.09
2022-08-10T04:22:41.401Z,64.97
2022-08-10T04:27:43.834Z,65.38
2022-08-10T04:32:48.669Z,65.54
2022-08-10T04:37:51.756Z,65.83
2022-08-10T04:42:54.427Z,65.83
2022-08-10T04:48:03.650Z,65.98
2022-08-10T04:53:05.479Z,66.34
2022-08-10T04:58:07.250Z,67.22
2022-08-10T05:03:08.964Z,67.48
2022-08-10T05:08:10.734Z,67.84
2022-08-10T05:13:12.450Z,68.11
2022-08-10T05:18:14.208Z,68.39
2022-08-10T05:23:15.951Z,69.07
2022-08-10T05:28:17.623Z,69.38
2022-08-10T05:33:19.360Z,69.27
2022-08-10T05:38:23.585Z,68.43
2022-08-10T05:43:25.438Z,68.00
2022-08-10T05:48:55.248Z,67.27
2022-08-10T05:54:02.481Z,66.11
2022-08-10T05:59:07.175Z,65.52
2022-08-10T06:04:11.469Z,64.91
2022-08-10T06:09:16.071Z,64.21
2022-08-10T06:14:36.828Z,63.42
2022-08-10T06:19:39.253Z,62.30
2022-08-10T06:25:04.556Z,61.36
2022-08-10T06:30:20.789Z,60.48
2022-08-10T06:35:27.689Z,60.06
2022-08-10T06:40:35.191Z,58.68
2022-08-10T06:45:44.046Z,57.90
2022-08-10T06:50:58.182Z,57.39
2022-08-10T06:56:13.495Z,57.18
2022-08-10T07:01:20.998Z,55.78
2022-08-10T07:06:23.471Z,54.88
2022-08-10T07:11:27.286Z,54.76
2022-08-10T07:16:32.363Z,54.16
2022-08-10T07:21:35.878Z,53.39
2022-08-10T07:26:43.102Z,53.68
2022-08-10T07:31:55.465Z,53.70
2022-08-10T07:37:03.669Z,53.34
2022-08-10T07:42:09.889Z,52.96
2022-08-10T07:47:46.156Z,51.47
2022-08-10T07:52:47.382Z,50.98
2022-08-10T07:57:52.352Z,51.36
2022-08-10T08:02:56.697Z,50.76
2022-08-10T08:08:01.170Z,50.15
2022-08-10T08:13:03.665Z,50.67
2022-08-10T08:18:09.320Z,50.04
2022-08-10T08:24:10.981Z,49.43
2022-08-10T08:28:37.138Z,49.30
2022-08-10T08:33:42.010Z,48.16
2022-08-10T08:38:45.360Z,46.30
2022-08-10T08:43:59.452Z,46.96
2022-08-10T08:50:05.305Z,46.37
2022-08-10T08:55:04.204Z,44.91
2022-08-10T09:00:56.913Z,44.46
2022-08-10T09:06:12.856Z,44.36
2022-08-10T09:11:33.043Z,44.44
2022-08-10T09:17:03.343Z,44.70
2022-08-10T09:22:17.953Z,43.84
2022-08-10T09:27:35.182Z,43.69
2022-08-10T09:36:13.779Z,44.11
2022-08-10T09:38:28.318Z,40.76
2022-08-10T09:43:47.321Z,42.23
2022-08-10T09:49:05.382Z,40.76
2022-08-10T09:54:13.087Z,40.63
2022-08-10T10:00:01.859Z,40.83
2022-08-10T10:05:08.960Z,42.13
2022-08-10T10:10:16.858Z,40.18
2022-08-10T10:15:35.260Z,39.93
2022-08-10T10:21:07.402Z,40.18
2022-08-10T10:26:31.371Z,39.67
2022-08-10T10:31:49.799Z,40.44
2022-08-10T10:36:52.576Z,38.13
2022-08-10T10:42:44.757Z,37.68
2022-08-10T10:48:02.764Z,38.24
2022-08-10T10:53:22.302Z,37.88
2022-08-10T10:58:28.734Z,38.75
2022-08-10T11:04:13.631Z,37.94
2022-08-10T11:10:05.451Z,37.36
2022-08-10T11:14:52.927Z,38.18
2022-08-10T11:20:18.188Z,38.10
2022-08-10T11:25:36.201Z,35.73
2022-08-10T11:30:56.339Z,36.74
2022-08-10T11:36:16.124Z,37.81
2022-08-10T11:42:07.981Z,35.92
2022-08-10T11:47:15.267Z,35.60
2022-08-10T11:52:27.690Z,35.24
2022-08-10T11:57:53.827Z,33.69
2022-08-10T12:03:01.765Z,35.62
2022-08-10T12:10:03.972Z,34.62
2022-08-10T12:13:36.106Z,35.61
2022-08-10T12:19:04.360Z,33.47
2022-08-10T12:24:16.235Z,35.23
2022-08-10T12:29:27.706Z,33.26
2022-08-10T12:34:36.430Z,32.31
2022-08-10T12:39:53.150Z,34.22
2022-08-10T12:45:03.388Z,33.08
2022-08-10T12:50:30.877Z,32.11
2022-08-10T12:55:38.434Z,31.52
2022-08-10T13:01:05.711Z,32.56
2022-08-10T13:06:09.290Z,33.02
2022-08-10T13:11:25.724Z,31.66
2022-08-10T13:16:36.939Z,33.41
2022-08-10T13:21:41.267Z,32.37
2022-08-10T13:27:24.848Z,32.43
2022-08-10T13:32:22.954Z,31.82
2022-08-10T13:37:27.457Z,32.44
2022-08-10T13:42:35.805Z,32.50
2022-08-10T13:47:49.164Z,32.04
2022-08-10T13:52:54.514Z,31.11
2022-08-10T13:57:59.684Z,31.21
2022-08-10T14:03:08.121Z,31.42
2022-08-10T14:08:13.896Z,31.31
2022-08-10T14:13:18.238Z,31.11
2022-08-10T14:18:20.704Z,31.86
2022-08-10T14:23:22.617Z,32.26
2022-08-10T14:28:31.433Z,32.09
2022-08-10T14:33:36.158Z,30.95
2022-08-10T14:38:42.567Z,32.31
2022-08-10T14:43:54.129Z,31.47
2022-08-10T14:48:58.623Z,31.38
2022-08-10T14:54:04.825Z,32.00
2022-08-10T14:59:09.411Z,31.43
2022-08-10T15:04:13.916Z,30.83
2022-08-10T15:09:20.210Z,32.25
2022-08-10T15:14:43.410Z,31.58
2022-08-10T15:20:02.260Z,31.84
2022-08-10T15:25:19.657Z,31.56
2022-08-10T15:30:31.009Z,32.82
2022-08-10T15:35:52.888Z,31.08
2022-08-10T15:40:56.793Z,32.03
2022-08-10T15:46:06.539Z,31.89
2022-08-10T15:51:53.957Z,31.04
2022-08-10T15:57:03.747Z,31.64
2022-08-10T16:02:16.774Z,31.45
2022-08-10T16:07:42.903Z,31.39
2022-08-10T16:13:00.235Z,31.83
2022-08-10T16:18:02.920Z,30.09
2022-08-10T16:23:11.930Z,30.48
2022-08-10T16:28:23.192Z,30.89
2022-08-10T16:33:52.617Z,31.48
2022-08-10T16:38:52.806Z,31.18
2022-08-10T16:43:57.112Z,31.25
2022-08-10T16:49:01.137Z,32.04
2022-08-10T16:54:03.913Z,32.12
2022-08-10T16:59:07.151Z,32.60
2022-08-10T17:04:10.456Z,33.37
2022-08-10T17:09:20.084Z,33.19
2022-08-10T17:14:27.711Z,33.13
2022-08-10T17:19:35.358Z,33.20
2022-08-10T17:24:43.204Z,32.18
2022-08-10T17:29:58.923Z,32.07
2022-08-10T17:35:10.967Z,32.57
2022-08-10T17:40:16.830Z,32.67
2022-08-10T17:45:48.558Z,33.16
2022-08-10T17:50:52.820Z,33.37
2022-08-10T17:55:57.880Z,34.18
2022-08-10T18:01:38.100Z,34.26
2022-08-10T18:06:25.552Z,35.04
2022-08-10T18:11:31.063Z,35.90
2022-08-10T18:16:34.349Z,36.14
2022-08-10T18:21:43.418Z,36.04
2022-08-10T18:26:51.284Z,36.61
2022-08-10T18:32:01.535Z,37.82
2022-08-10T18:37:07.112Z,39.44
2022-08-10T18:42:19.588Z,41.16
2022-08-10T18:47:31.976Z,41.87
2022-08-10T18:52:34.327Z,42.34
2022-08-10T18:57:58.632Z,43.07
2022-08-10T19:03:15.738Z,44.12
2022-08-10T19:08:49.550Z,43.80
2022-08-10T19:14:16.311Z,44.25
2022-08-10T19:19:22.173Z,44.96
2022-08-10T19:24:43.231Z,45.71
2022-08-10T19:30:12.973Z,45.95
2022-08-10T19:36:03.537Z,46.06
2022-08-10T19:41:25.406Z,46.58
2022-08-10T19:47:05.502Z,47.68
2022-08-10T19:52:20.684Z,48.01
2022-08-10T19:57:33.277Z,48.21
2022-08-10T20:03:00.286Z,48.61
2022-08-10T20:08:17.735Z,48.61
2022-08-10T20:13:29.201Z,48.57
2022-08-10T20:18:36.855Z,48.76
2022-08-10T20:23:55.387Z,49.00
2022-08-10T20:29:03.314Z,49.28
2022-08-10T20:34:12.770Z,49.42
2022-08-10T20:39:27.008Z,49.76
2022-08-10T20:44:37.872Z,50.09
2022-08-10T20:49:57.456Z,50.33
2022-08-10T20:55:02.756Z,50.10
2022-08-10T21:00:12.711Z,50.37
2022-08-10T21:05:48.884Z,50.93
2022-08-10T21:11:13.265Z,51.10
2022-08-10T21:16:33.753Z,51.44
2022-08-10T21:22:08.772Z,51.65
2022-08-10T21:27:22.457Z,51.92
2022-08-10T21:32:30.449Z,52.06
2022-08-10T21:37:56.676Z,52.46
2022-08-10T21:43:48.597Z,52.66
2022-08-10T21:49:15.086Z,52.49
2022-08-10T21:54:46.020Z,53.03
2022-08-10T22:00:29.576Z,53.16
2022-08-10T22:05:54.290Z,53.24
2022-08-10T22:11:17.092Z,53.06
2022-08-10T22:18:10.541Z,53.78
2022-08-10T22:23:19.113Z,54.11
2022-08-10T22:28:39.966Z,54.07
2022-08-10T22:34:15.745Z,54.24
2022-08-10T22:40:12.055Z,54.48
2022-08-10T22:45:27.995Z,54.65
2022-08-10T22:50:32.099Z,54.81
2022-08-10T22:55:57.375Z,54.86
2022-08-10T23:01:12.030Z,55.06
2022-08-10T23:06:18.804Z,55.42
2022-08-10T23:11:24.890Z,55.27
2022-08-10T23:16:49.012Z,55.36
2022-08-10T23:22:04.741Z,55.43
2022-08-10T23:27:12.963Z,55.73
2022-08-10T23:32:37.278Z,55.87
2022-08-10T23:37:40.543Z,56.07
2022-08-10T23:42:47.579Z,56.50
2022-08-10T23:47:53.642Z,56.73
2022-08-10T23:52:59.366Z,56.65
2022-08-10T23:58:07.682Z,56.72
